createdAt,value
2018-01-26T00:00:08.145Z,10.53
2018-01-26T00:01:13.892Z,10.55
2018-01-26T00:02:19.650Z,10.56
2018-01-26T00:03:25.390Z,10.55
2018-01-26T00:04:31.166Z,10.54
2018-01-26T00:05:36.926Z,10.53
2018-01-26T00:06:43.446Z,10.53
2018-01-26T00:07:49.466Z,10.56
2018-01-26T00:08:55.255Z,10.57
2018-01-26T00:10:02.536Z,10.57
2018-01-26T00:11:08.271Z,10.50
2018-01-26T00:12:14.784Z,10.52
2018-01-26T00:13:20.537Z,10.54
2018-01-26T00:14:26.291Z,10.52
2018-01-26T00:15:32.066Z,10.52
2018-01-26T00:16:38.572Z,10.51
2018-01-26T00:17:44.308Z,10.52
2018-01-26T00:18:50.043Z,10.54
2018-01-26T00:19:55.797Z,10.55
2018-01-26T00:21:01.570Z,10.56
2018-01-26T00:22:08.082Z,10.59
2018-01-26T00:23:13.832Z,10.55
2018-01-26T00:24:19.661Z,10.54
2018-01-26T00:25:25.530Z,10.54
2018-01-26T00:26:31.454Z,10.57
2018-01-26T00:27:37.272Z,10.63
2018-01-26T00:28:43.508Z,10.65
2018-01-26T00:29:49.358Z,10.62
2018-01-26T00:30:55.871Z,10.62
2018-01-26T00:32:01.664Z,10.58
2018-01-26T00:33:08.179Z,10.60
2018-01-26T00:34:13.930Z,10.60
2018-01-26T00:35:19.686Z,10.57
2018-01-26T00:36:25.436Z,10.57
2018-01-26T00:37:31.189Z,10.56
2018-01-26T00:38:37.705Z,10.49
2018-01-26T00:39:43.466Z,10.52
2018-01-26T00:40:49.214Z,10.54
2018-01-26T00:41:54.967Z,10.58
2018-01-26T00:43:01.508Z,10.55
2018-01-26T00:44:07.279Z,10.53
2018-01-26T00:45:13.794Z,10.50
2018-01-26T00:46:19.548Z,10.49
2018-01-26T00:47:25.304Z,10.45
2018-01-26T00:48:31.066Z,10.42
2018-01-26T00:49:37.588Z,10.40
2018-01-26T00:50:43.350Z,10.34
2018-01-26T00:51:49.871Z,10.32
2018-01-26T00:52:55.615Z,10.37
2018-01-26T00:54:01.428Z,10.40
2018-01-26T00:55:07.170Z,10.46
2018-01-26T00:56:12.904Z,10.40
2018-01-26T00:57:18.645Z,10.34
2018-01-26T00:58:24.414Z,10.33
2018-01-26T00:59:30.190Z,10.32
2018-01-26T01:00:35.618Z,10.37
2018-01-26T01:01:41.354Z,10.40
2018-01-26T01:02:47.088Z,10.40
2018-01-26T01:03:52.858Z,10.41
2018-01-26T01:04:59.065Z,10.41
2018-01-26T01:06:04.819Z,10.36
2018-01-26T01:07:10.565Z,10.33
2018-01-26T01:08:16.302Z,10.30
2018-01-26T01:09:22.331Z,10.29
2018-01-26T01:10:28.112Z,10.28
2018-01-26T01:11:33.850Z,10.31
2018-01-26T01:12:39.585Z,10.36
2018-01-26T01:13:46.865Z,10.42
2018-01-26T01:14:52.596Z,10.46
2018-01-26T01:15:58.399Z,10.48
2018-01-26T01:17:04.156Z,10.52
2018-01-26T01:18:09.902Z,10.53
2018-01-26T01:19:15.639Z,10.57
2018-01-26T01:20:21.380Z,10.59
2018-01-26T01:21:27.136Z,10.58
2018-01-26T01:22:32.899Z,10.54
2018-01-26T01:23:40.156Z,10.51
2018-01-26T01:24:45.915Z,10.49
2018-01-26T01:25:51.649Z,10.50
2018-01-26T01:26:57.416Z,10.50
2018-01-26T01:28:03.172Z,10.48
2018-01-26T01:29:09.682Z,10.42
2018-01-26T01:30:15.432Z,10.36
2018-01-26T01:31:21.179Z,10.34
2018-01-26T01:32:26.939Z,10.34
2018-01-26T01:33:34.194Z,10.32
2018-01-26T01:34:39.937Z,10.28
2018-01-26T01:35:45.681Z,10.27
2018-01-26T01:36:51.441Z,10.27
2018-01-26T01:37:57.228Z,10.24
2018-01-26T01:39:02.978Z,10.20
2018-01-26T01:40:08.737Z,10.20
2018-01-26T01:41:14.475Z,10.21
2018-01-26T01:42:20.235Z,10.22
2018-01-26T01:43:26.777Z,10.20
2018-01-26T01:44:32.517Z,10.16
2018-01-26T01:45:38.266Z,10.14
2018-01-26T01:46:44.024Z,10.14
2018-01-26T01:47:49.759Z,10.09
2018-01-26T01:49:12.390Z,10.06
2018-01-26T01:50:18.160Z,9.95
2018-01-26T01:51:24.667Z,9.95
2018-01-26T01:52:30.484Z,9.89
2018-01-26T01:53:36.993Z,9.86
2018-01-26T01:54:42.762Z,9.83
2018-01-26T01:55:48.486Z,9.83
2018-01-26T01:56:54.228Z,9.85
2018-01-26T01:58:00.055Z,9.87
2018-01-26T01:59:05.787Z,9.86
2018-01-26T02:00:11.597Z,9.85
2018-01-26T02:01:17.329Z,9.86
2018-01-26T02:02:23.860Z,9.86
2018-01-26T02:03:29.587Z,9.89
2018-01-26T02:04:35.328Z,9.89
2018-01-26T02:05:41.110Z,9.93
2018-01-26T02:06:47.627Z,9.94
2018-01-26T02:07:53.391Z,9.95
2018-01-26T02:08:59.180Z,9.95
2018-01-26T02:10:04.926Z,9.97
2018-01-26T02:11:10.698Z,9.99
2018-01-26T02:12:16.420Z,9.98
2018-01-26T02:13:22.179Z,10.02
2018-01-26T02:14:27.946Z,10.03
2018-01-26T02:15:34.461Z,10.02
2018-01-26T02:16:40.239Z,9.99
2018-01-26T02:17:46.796Z,10.02
2018-01-26T02:18:53.327Z,10.02
2018-01-26T02:19:59.088Z,10.03
2018-01-26T02:21:05.731Z,10.02
2018-01-26T02:22:12.047Z,10.03
2018-01-26T02:23:17.802Z,10.00
2018-01-26T02:24:23.548Z,10.00
2018-01-26T02:25:29.304Z,9.99
2018-01-26T02:26:35.051Z,9.97
2018-01-26T02:27:40.827Z,9.97
2018-01-26T02:28:46.574Z,9.97
2018-01-26T02:29:53.078Z,9.98
2018-01-26T02:30:58.812Z,9.93
2018-01-26T02:32:04.334Z,9.96
2018-01-26T02:33:10.124Z,9.96
2018-01-26T02:34:15.856Z,10.00
2018-01-26T02:35:21.609Z,10.01
2018-01-26T02:36:27.368Z,10.03
2018-01-26T02:37:33.887Z,10.04
2018-01-26T02:38:39.649Z,10.05
2018-01-26T02:39:45.394Z,10.00
2018-01-26T02:40:51.151Z,9.99
2018-01-26T02:41:56.885Z,9.97
2018-01-26T02:43:02.640Z,9.96
2018-01-26T02:44:09.185Z,9.96
2018-01-26T02:45:14.944Z,9.95
2018-01-26T02:46:21.471Z,9.95
2018-01-26T02:47:27.484Z,9.92
2018-01-26T02:48:33.241Z,9.89
2018-01-26T02:49:39.036Z,9.90
2018-01-26T02:50:45.551Z,9.92
2018-01-26T02:51:51.283Z,9.96
2018-01-26T02:52:57.044Z,10.02
2018-01-26T02:54:02.791Z,10.06
2018-01-26T02:55:08.571Z,10.07
2018-01-26T02:56:14.330Z,10.06
2018-01-26T02:57:20.083Z,10.07
2018-01-26T02:58:25.906Z,10.07
2018-01-26T02:59:31.663Z,10.12
2018-01-26T03:00:37.446Z,10.19
2018-01-26T03:01:43.986Z,10.24
2018-01-26T03:02:49.729Z,10.22
2018-01-26T03:03:55.516Z,10.23
2018-01-26T03:05:02.038Z,10.25
2018-01-26T03:06:07.819Z,10.24
2018-01-26T03:07:14.324Z,10.23
2018-01-26T03:08:20.066Z,10.22
2018-01-26T03:09:25.804Z,10.19
2018-01-26T03:10:31.535Z,10.21
2018-01-26T03:11:37.308Z,10.24
2018-01-26T03:12:44.611Z,10.26
2018-01-26T03:13:51.114Z,10.29
2018-01-26T03:14:56.855Z,10.33
2018-01-26T03:16:02.618Z,10.35
2018-01-26T03:17:08.383Z,10.37
2018-01-26T03:18:14.141Z,10.38
2018-01-26T03:19:20.662Z,10.40
2018-01-26T03:20:26.397Z,10.39
2018-01-26T03:21:32.143Z,10.39
2018-01-26T03:22:38.278Z,10.39
2018-01-26T03:23:44.080Z,10.37
2018-01-26T03:24:49.818Z,10.34
2018-01-26T03:25:56.313Z,10.38
2018-01-26T03:27:02.073Z,10.39
2018-01-26T03:28:07.826Z,10.40
2018-01-26T03:29:13.549Z,10.41
2018-01-26T03:30:19.271Z,10.43
2018-01-26T03:31:25.108Z,10.46
2018-01-26T03:32:30.846Z,10.48
2018-01-26T03:33:36.439Z,10.47
2018-01-26T03:34:42.188Z,10.48
2018-01-26T03:35:47.912Z,10.50
2018-01-26T03:36:53.651Z,10.52
2018-01-26T03:37:59.388Z,10.51
2018-01-26T03:39:04.385Z,10.52
2018-01-26T03:40:10.134Z,10.55
2018-01-26T03:41:15.864Z,10.57
2018-01-26T03:42:21.694Z,10.58
2018-01-26T03:43:28.198Z,10.59
2018-01-26T03:44:33.956Z,10.60
2018-01-26T03:45:39.716Z,10.61
2018-01-26T03:46:46.235Z,10.62
2018-01-26T03:47:51.965Z,10.63
2018-01-26T03:48:57.706Z,10.64
2018-01-26T03:50:03.489Z,10.62
2018-01-26T03:51:10.005Z,10.64
2018-01-26T03:52:15.843Z,10.67
2018-01-26T03:53:21.603Z,10.71
2018-01-26T03:54:27.339Z,10.74
2018-01-26T03:55:33.095Z,10.75
2018-01-26T03:56:38.843Z,10.79
2018-01-26T03:57:44.594Z,10.79
2018-01-26T03:58:50.328Z,10.82
2018-01-26T03:59:56.083Z,10.81
2018-01-26T04:01:02.627Z,10.82
2018-01-26T04:02:08.378Z,10.83
2018-01-26T04:03:14.109Z,10.84
2018-01-26T04:04:19.844Z,10.87
2018-01-26T04:05:25.617Z,10.90
2018-01-26T04:06:32.139Z,10.92
2018-01-26T04:07:37.887Z,10.93
2018-01-26T04:08:43.627Z,10.94
2018-01-26T04:09:49.422Z,10.93
2018-01-26T04:10:54.995Z,10.94
2018-01-26T04:12:00.789Z,10.96
2018-01-26T04:13:07.293Z,10.98
2018-01-26T04:14:13.056Z,11.00
2018-01-26T04:15:19.568Z,11.03
2018-01-26T04:16:25.292Z,11.02
2018-01-26T04:17:31.077Z,11.05
2018-01-26T04:18:36.816Z,11.05
2018-01-26T04:19:42.629Z,11.08
2018-01-26T04:20:48.373Z,11.08
2018-01-26T04:21:54.122Z,11.06
2018-01-26T04:22:59.900Z,11.09
2018-01-26T04:24:05.692Z,11.08
2018-01-26T04:25:11.447Z,11.06
2018-01-26T04:26:17.279Z,11.04
2018-01-26T04:27:23.790Z,11.04
2018-01-26T04:28:29.576Z,11.04
2018-01-26T04:29:35.893Z,11.08
2018-01-26T04:30:41.620Z,11.12
2018-01-26T04:31:47.369Z,11.15
2018-01-26T04:32:53.134Z,11.16
2018-01-26T04:33:59.691Z,11.18
2018-01-26T04:35:06.222Z,11.12
2018-01-26T04:36:11.964Z,11.11
2018-01-26T04:37:17.747Z,11.12
2018-01-26T04:38:24.254Z,11.12
2018-01-26T04:39:30.064Z,11.09
2018-01-26T04:40:35.825Z,11.11
2018-01-26T04:41:41.590Z,11.12
2018-01-26T04:42:47.341Z,11.09
2018-01-26T04:43:53.081Z,11.09
2018-01-26T04:44:58.854Z,11.09
2018-01-26T04:46:05.442Z,11.06
2018-01-26T04:47:11.208Z,11.09
2018-01-26T04:48:16.977Z,11.07
2018-01-26T04:49:22.730Z,11.06
2018-01-26T04:50:29.277Z,11.07
2018-01-26T04:51:35.034Z,11.04
2018-01-26T04:52:40.772Z,11.04
2018-01-26T04:53:46.509Z,11.01
2018-01-26T04:54:53.025Z,11.02
2018-01-26T04:55:58.790Z,10.98
2018-01-26T04:57:04.555Z,10.98
2018-01-26T04:58:10.310Z,10.97
2018-01-26T04:59:16.832Z,10.97
2018-01-26T05:00:22.604Z,10.97
2018-01-26T05:01:29.146Z,10.98
2018-01-26T05:02:36.399Z,10.96
2018-01-26T05:03:42.154Z,10.94
2018-01-26T05:04:47.912Z,10.91
2018-01-26T05:05:53.667Z,10.92
2018-01-26T05:07:00.208Z,10.93
2018-01-26T05:08:05.978Z,10.92
2018-01-26T05:09:11.725Z,10.95
2018-01-26T05:10:17.485Z,10.97
2018-01-26T05:11:23.255Z,10.93
2018-01-26T05:12:29.028Z,10.86
2018-01-26T05:13:34.775Z,10.82
2018-01-26T05:14:41.281Z,10.81
2018-01-26T05:15:47.088Z,10.80
2018-01-26T05:16:52.832Z,10.83
2018-01-26T05:17:59.383Z,10.82
2018-01-26T05:19:05.884Z,10.85
2018-01-26T05:20:11.641Z,10.85
2018-01-26T05:21:17.385Z,10.86
2018-01-26T05:22:23.138Z,10.85
2018-01-26T05:23:28.908Z,10.81
2018-01-26T05:24:35.419Z,10.76
2018-01-26T05:25:41.184Z,10.75
2018-01-26T05:26:46.947Z,10.76
2018-01-26T05:27:54.198Z,10.79
2018-01-26T05:29:00.053Z,10.81
2018-01-26T05:30:05.970Z,10.80
2018-01-26T05:31:11.711Z,10.75
2018-01-26T05:32:17.468Z,10.73
2018-01-26T05:33:23.237Z,10.72
2018-01-26T05:34:29.795Z,10.70
2018-01-26T05:35:36.319Z,10.72
2018-01-26T05:36:42.083Z,10.73
2018-01-26T05:37:48.616Z,10.73
2018-01-26T05:38:54.372Z,10.75
2018-01-26T05:40:00.149Z,10.76
2018-01-26T05:41:06.456Z,10.76
2018-01-26T05:42:12.207Z,10.75
2018-01-26T05:43:17.947Z,10.78
2018-01-26T05:44:23.710Z,10.79
2018-01-26T05:45:29.457Z,10.79
2018-01-26T05:46:35.975Z,10.77
2018-01-26T05:47:41.701Z,10.76
2018-01-26T05:48:47.436Z,10.76
2018-01-26T05:49:53.985Z,10.76
2018-01-26T05:50:59.914Z,10.74
2018-01-26T05:52:06.430Z,10.77
2018-01-26T05:53:12.173Z,10.75
2018-01-26T05:54:17.900Z,10.74
2018-01-26T05:55:23.654Z,10.75
2018-01-26T05:56:29.409Z,10.72
2018-01-26T05:57:35.154Z,10.69
2018-01-26T05:58:40.909Z,10.68
2018-01-26T05:59:47.404Z,10.70
2018-01-26T06:00:53.163Z,10.72
2018-01-26T06:01:58.929Z,10.73
2018-01-26T06:03:04.676Z,10.71
2018-01-26T06:04:10.403Z,10.73
2018-01-26T06:05:16.138Z,10.71
2018-01-26T06:06:21.883Z,10.72
2018-01-26T06:07:27.643Z,10.69
2018-01-26T06:08:34.137Z,10.68
2018-01-26T06:09:39.893Z,10.70
2018-01-26T06:10:45.685Z,10.71
2018-01-26T06:11:51.471Z,10.69
2018-01-26T06:12:57.232Z,10.70
2018-01-26T06:14:03.010Z,10.71
2018-01-26T06:15:10.341Z,10.72
2018-01-26T06:16:16.083Z,10.73
2018-01-26T06:17:21.660Z,10.72
2018-01-26T06:18:27.438Z,10.71
2018-01-26T06:19:34.082Z,10.73
2018-01-26T06:20:39.828Z,10.73
2018-01-26T06:21:45.391Z,10.74
2018-01-26T06:22:51.199Z,10.73
2018-01-26T06:23:56.956Z,10.73
2018-01-26T06:25:03.290Z,10.74
2018-01-26T06:26:08.860Z,10.67
2018-01-26T06:27:14.426Z,10.62
2018-01-26T06:28:20.007Z,10.63
2018-01-26T06:29:25.613Z,10.61
2018-01-26T06:30:31.261Z,10.61
2018-01-26T06:31:37.002Z,10.63
2018-01-26T06:32:42.745Z,10.62
2018-01-26T06:33:48.511Z,10.61
2018-01-26T06:34:55.070Z,10.60
2018-01-26T06:36:01.577Z,10.57
2018-01-26T06:37:07.335Z,10.56
2018-01-26T06:38:13.086Z,10.59
2018-01-26T06:39:18.864Z,10.58
2018-01-26T06:40:25.388Z,10.55
2018-01-26T06:41:31.143Z,10.54
2018-01-26T06:42:36.876Z,10.53
2018-01-26T06:43:42.736Z,10.54
2018-01-26T06:44:48.490Z,10.51
2018-01-26T06:45:55.330Z,10.45
2018-01-26T06:47:01.516Z,10.39
2018-01-26T06:48:08.136Z,10.41
2018-01-26T06:49:14.678Z,10.38
2018-01-26T06:50:20.577Z,10.39
2018-01-26T06:51:27.419Z,10.41
2018-01-26T06:52:33.217Z,10.42
2018-01-26T06:53:39.006Z,10.40
2018-01-26T06:54:45.517Z,10.41
2018-01-26T06:55:51.289Z,10.42
2018-01-26T06:56:57.056Z,10.42
2018-01-26T06:58:03.220Z,10.43
2018-01-26T06:59:09.801Z,10.43
2018-01-26T07:00:16.422Z,10.46
2018-01-26T07:01:22.595Z,10.46
2018-01-26T07:02:29.967Z,10.42
2018-01-26T07:03:37.296Z,10.41
2018-01-26T07:04:43.997Z,10.40
2018-01-26T07:05:51.242Z,10.37
2018-01-26T07:06:57.005Z,10.35
2018-01-26T07:08:03.143Z,10.32
2018-01-26T07:09:09.711Z,10.33
2018-01-26T07:10:15.747Z,10.33
2018-01-26T07:11:21.814Z,10.30
2018-01-26T07:12:27.908Z,10.29
2018-01-26T07:13:33.916Z,10.27
2018-01-26T07:14:39.961Z,10.26
2018-01-26T07:15:46.781Z,10.28
2018-01-26T07:16:52.381Z,10.32
2018-01-26T07:17:58.156Z,10.34
2018-01-26T07:19:04.005Z,10.34
2018-01-26T07:20:09.597Z,10.36
2018-01-26T07:21:16.190Z,10.34
2018-01-26T07:22:22.148Z,10.34
2018-01-26T07:23:28.196Z,10.34
2018-01-26T07:24:33.997Z,10.35
2018-01-26T07:25:40.520Z,10.36
2018-01-26T07:26:47.332Z,10.36
2018-01-26T07:27:54.146Z,10.33
2018-01-26T07:28:59.994Z,10.31
2018-01-26T07:30:05.787Z,10.29
2018-01-26T07:31:12.339Z,10.29
2018-01-26T07:32:18.866Z,10.29
2018-01-26T07:33:25.121Z,10.29
2018-01-26T07:34:30.921Z,10.30
2018-01-26T07:35:37.370Z,10.31
2018-01-26T07:36:43.180Z,10.29
2018-01-26T07:37:49.306Z,10.31
2018-01-26T07:38:55.105Z,10.29
2018-01-26T07:40:00.868Z,10.31
2018-01-26T07:41:07.054Z,10.34
2018-01-26T07:42:12.849Z,10.33
2018-01-26T07:43:18.674Z,10.38
2018-01-26T07:44:25.356Z,10.35
2018-01-26T07:45:31.260Z,10.30
2018-01-26T07:46:37.122Z,10.26
2018-01-26T07:47:43.642Z,10.17
2018-01-26T07:48:49.364Z,10.18
2018-01-26T07:49:54.983Z,10.19
2018-01-26T07:51:00.733Z,10.19
2018-01-26T07:52:06.570Z,10.22
2018-01-26T07:53:12.389Z,10.19
2018-01-26T07:54:18.161Z,10.19
2018-01-26T07:55:23.937Z,10.20
2018-01-26T07:56:29.804Z,10.23
2018-01-26T07:57:35.592Z,10.24
2018-01-26T07:58:41.510Z,10.24
2018-01-26T07:59:48.086Z,10.26
2018-01-26T08:00:54.032Z,10.24
2018-01-26T08:02:00.855Z,10.22
2018-01-26T08:03:07.723Z,10.25
2018-01-26T08:04:16.810Z,10.25
2018-01-26T08:05:22.425Z,10.24
2018-01-26T08:06:28.019Z,10.26
2018-01-26T08:07:33.917Z,10.28
2018-01-26T08:08:39.531Z,10.29
2018-01-26T08:09:45.955Z,10.28
2018-01-26T08:10:51.846Z,10.30
2018-01-26T08:11:57.637Z,10.32
2018-01-26T08:13:03.971Z,10.33
2018-01-26T08:14:10.537Z,10.37
2018-01-26T08:15:16.475Z,10.42
2018-01-26T08:16:22.189Z,10.44
2018-01-26T08:17:28.736Z,10.49
2018-01-26T08:18:35.142Z,10.53
2018-01-26T08:19:41.071Z,10.52
2018-01-26T08:20:46.801Z,10.52
2018-01-26T08:21:52.566Z,10.55
2018-01-26T08:22:58.333Z,10.59
2018-01-26T08:24:04.821Z,10.62
2018-01-26T08:25:10.559Z,10.64
2018-01-26T08:26:16.433Z,10.64
2018-01-26T08:27:22.332Z,10.66
2018-01-26T08:28:28.055Z,10.68
2018-01-26T08:29:34.543Z,10.72
2018-01-26T08:30:40.293Z,10.74
2018-01-26T08:31:46.040Z,10.76
2018-01-26T08:32:51.858Z,10.77
2018-01-26T08:33:57.628Z,10.79
2018-01-26T08:35:03.371Z,10.74
2018-01-26T08:36:09.148Z,10.73
2018-01-26T08:37:15.027Z,10.72
2018-01-26T08:38:20.899Z,10.77
2018-01-26T08:39:26.675Z,10.81
2018-01-26T08:40:33.931Z,10.84
2018-01-26T08:41:39.741Z,10.86
2018-01-26T08:42:46.287Z,10.90
2018-01-26T08:43:52.791Z,10.90
2018-01-26T08:44:58.507Z,10.85
2018-01-26T08:46:04.228Z,10.87
2018-01-26T08:47:11.001Z,10.86
2018-01-26T08:48:16.775Z,10.85
2018-01-26T08:49:22.735Z,10.89
2018-01-26T08:50:28.834Z,10.89
2018-01-26T08:51:35.006Z,10.87
2018-01-26T08:52:40.767Z,10.88
2018-01-26T08:53:46.513Z,10.93
2018-01-26T08:54:52.414Z,10.91
2018-01-26T08:55:57.994Z,10.94
2018-01-26T08:57:04.375Z,10.93
2018-01-26T08:58:10.212Z,10.94
2018-01-26T08:59:15.977Z,10.93
2018-01-26T09:00:22.489Z,10.95
2018-01-26T09:01:28.296Z,10.99
2018-01-26T09:02:34.030Z,11.03
2018-01-26T09:03:40.609Z,11.00
2018-01-26T09:04:46.644Z,11.01
2018-01-26T09:05:53.162Z,11.03
2018-01-26T09:06:59.215Z,11.04
2018-01-26T09:08:05.145Z,11.04
2018-01-26T09:09:10.938Z,11.10
2018-01-26T09:10:17.091Z,11.11
2018-01-26T09:11:22.851Z,11.14
2018-01-26T09:12:28.627Z,11.10
2018-01-26T09:13:34.372Z,11.13
2018-01-26T09:14:40.332Z,11.16
2018-01-26T09:15:46.841Z,11.19
2018-01-26T09:16:52.613Z,11.20
2018-01-26T09:17:58.459Z,11.26
2018-01-26T09:19:04.787Z,11.26
2018-01-26T09:20:10.604Z,11.32
2018-01-26T09:21:16.549Z,11.37
2018-01-26T09:22:22.356Z,11.41
2018-01-26T09:23:28.114Z,11.45
2018-01-26T09:24:33.881Z,11.47
2018-01-26T09:25:39.831Z,11.50
2018-01-26T09:26:46.247Z,11.51
2018-01-26T09:27:53.551Z,11.54
2018-01-26T09:29:00.224Z,11.54
2018-01-26T09:30:06.090Z,11.55
2018-01-26T09:31:12.006Z,11.48
2018-01-26T09:32:18.083Z,11.52
2018-01-26T09:33:23.906Z,11.56
2018-01-26T09:34:29.825Z,11.56
2018-01-26T09:35:36.364Z,11.58
2018-01-26T09:36:42.211Z,11.62
2018-01-26T09:37:48.916Z,11.64
2018-01-26T09:38:54.869Z,11.64
2018-01-26T09:40:00.814Z,11.65
2018-01-26T09:41:06.572Z,11.65
2018-01-26T09:42:13.123Z,11.62
2018-01-26T09:43:19.003Z,11.63
2018-01-26T09:44:25.570Z,11.66
2018-01-26T09:45:31.544Z,11.68
2018-01-26T09:46:38.070Z,11.68
2018-01-26T09:47:43.943Z,11.68
2018-01-26T09:48:50.324Z,11.69
2018-01-26T09:49:56.090Z,11.69
2018-01-26T09:51:01.825Z,11.69
2018-01-26T09:52:07.747Z,11.69
2018-01-26T09:53:13.700Z,11.66
2018-01-26T09:54:19.600Z,11.68
2018-01-26T09:55:25.364Z,11.67
2018-01-26T09:56:32.575Z,11.58
2018-01-26T09:57:38.304Z,11.58
2018-01-26T09:58:44.107Z,11.59
2018-01-26T09:59:49.832Z,11.75
2018-01-26T10:00:55.619Z,11.77
2018-01-26T10:02:01.091Z,11.78
2018-01-26T10:03:06.819Z,11.77
2018-01-26T10:04:12.578Z,11.78
2018-01-26T10:05:18.691Z,11.81
2018-01-26T10:06:24.440Z,11.81
2018-01-26T10:07:30.191Z,11.86
2018-01-26T10:08:35.807Z,11.95
2018-01-26T10:09:41.604Z,12.01
2018-01-26T10:10:47.367Z,12.05
2018-01-26T10:11:53.903Z,12.06
2018-01-26T10:12:59.651Z,12.08
2018-01-26T10:14:05.376Z,12.08
2018-01-26T10:15:11.150Z,12.08
2018-01-26T10:16:17.668Z,12.06
2018-01-26T10:17:23.132Z,12.02
2018-01-26T10:18:29.693Z,11.99
2018-01-26T10:19:35.604Z,11.96
2018-01-26T10:20:41.364Z,11.95
2018-01-26T10:21:47.105Z,11.94
2018-01-26T10:22:52.909Z,11.97
2018-01-26T10:23:58.458Z,11.97
2018-01-26T10:25:04.215Z,12.00
2018-01-26T10:26:10.010Z,11.99
2018-01-26T10:27:16.700Z,12.01
2018-01-26T10:28:22.531Z,12.00
2018-01-26T10:29:28.498Z,12.04
2018-01-26T10:30:34.319Z,12.06
2018-01-26T10:31:40.120Z,12.08
2018-01-26T10:32:45.964Z,12.09
2018-01-26T10:33:51.795Z,12.13
2018-01-26T10:34:57.622Z,12.15
2018-01-26T10:36:03.361Z,12.17
2018-01-26T10:37:09.168Z,12.18
2018-01-26T10:38:14.988Z,12.24
2018-01-26T10:39:20.841Z,12.27
2018-01-26T10:40:26.700Z,12.29
2018-01-26T10:41:32.647Z,12.28
2018-01-26T10:42:39.202Z,12.29
2018-01-26T10:43:45.801Z,12.32
2018-01-26T10:44:51.549Z,12.30
2018-01-26T10:45:57.328Z,12.43
2018-01-26T10:47:03.860Z,12.41
2018-01-26T10:48:09.619Z,12.40
2018-01-26T10:49:15.367Z,12.35
2018-01-26T10:50:21.243Z,12.32
2018-01-26T10:51:27.094Z,12.34
2018-01-26T10:52:33.054Z,12.47
2018-01-26T10:53:38.605Z,12.44
2018-01-26T10:54:44.372Z,12.38
2018-01-26T10:55:50.145Z,12.32
2018-01-26T10:56:56.686Z,12.32
2018-01-26T10:58:03.199Z,12.27
2018-01-26T10:59:09.252Z,12.27
2018-01-26T11:00:15.048Z,12.23
2018-01-26T11:01:20.824Z,12.24
2018-01-26T11:02:27.385Z,12.21
2018-01-26T11:03:33.138Z,12.20
2018-01-26T11:04:39.076Z,12.17
2018-01-26T11:05:44.901Z,12.17
2018-01-26T11:06:50.706Z,12.16
2018-01-26T11:08:03.549Z,12.17
2018-01-26T11:09:14.425Z,12.18
2018-01-26T11:10:20.422Z,12.19
2018-01-26T11:11:26.966Z,12.19
2018-01-26T11:12:32.690Z,12.23
2018-01-26T11:13:38.436Z,12.28
2018-01-26T11:14:44.191Z,12.31
2018-01-26T11:15:51.717Z,12.34
2018-01-26T11:16:57.501Z,12.37
2018-01-26T11:18:03.239Z,12.41
2018-01-26T11:19:08.993Z,12.43
2018-01-26T11:20:14.641Z,12.42
2018-01-26T11:21:20.409Z,12.41
2018-01-26T11:22:26.263Z,12.37
2018-01-26T11:23:32.383Z,12.36
2018-01-26T11:24:38.909Z,12.39
2018-01-26T11:25:44.722Z,12.41
2018-01-26T11:26:50.662Z,12.40
2018-01-26T11:27:56.509Z,12.40
2018-01-26T11:29:02.251Z,12.40
2018-01-26T11:30:08.073Z,12.40
2018-01-26T11:31:14.572Z,12.43
2018-01-26T11:32:20.324Z,12.44
2018-01-26T11:33:26.371Z,12.42
2018-01-26T11:34:32.149Z,12.41
2018-01-26T11:35:37.876Z,12.37
2018-01-26T11:36:44.848Z,12.33
2018-01-26T11:37:50.651Z,12.26
2018-01-26T11:38:56.737Z,12.21
2018-01-26T11:40:02.478Z,12.19
2018-01-26T11:41:08.384Z,12.14
2018-01-26T11:42:14.217Z,12.13
2018-01-26T11:43:20.488Z,12.13
2018-01-26T11:44:27.408Z,12.10
2018-01-26T11:45:33.254Z,12.08
2018-01-26T11:46:39.040Z,12.10
2018-01-26T11:47:45.071Z,12.11
2018-01-26T11:48:51.228Z,12.12
2018-01-26T11:49:57.056Z,12.11
2018-01-26T11:51:02.828Z,12.10
2018-01-26T11:52:08.624Z,12.11
2018-01-26T11:53:14.822Z,12.11
2018-01-26T11:54:20.625Z,12.06
2018-01-26T11:55:27.145Z,12.05
2018-01-26T11:56:33.166Z,12.01
2018-01-26T11:57:38.919Z,12.01
2018-01-26T11:58:44.645Z,11.93
2018-01-26T11:59:50.489Z,11.94
2018-01-26T12:00:56.389Z,11.89
2018-01-26T12:02:02.118Z,11.93
2018-01-26T12:03:07.899Z,11.97
2018-01-26T12:04:13.895Z,11.98
2018-01-26T12:05:19.900Z,12.00
2018-01-26T12:06:25.629Z,12.01
2018-01-26T12:07:32.143Z,12.00
2018-01-26T12:08:37.917Z,11.99
2018-01-26T12:09:43.840Z,11.97
2018-01-26T12:10:50.410Z,11.98
2018-01-26T12:11:57.014Z,11.98
2018-01-26T12:13:02.772Z,11.99
2018-01-26T12:14:08.340Z,12.01
2018-01-26T12:15:14.145Z,12.04
2018-01-26T12:16:20.016Z,12.06
2018-01-26T12:17:25.775Z,12.06
2018-01-26T12:18:31.519Z,12.04
2018-01-26T12:19:37.079Z,12.02
2018-01-26T12:20:43.612Z,11.99
2018-01-26T12:21:50.016Z,11.99
2018-01-26T12:22:55.754Z,11.96
2018-01-26T12:24:01.529Z,11.97
2018-01-26T12:25:07.272Z,11.98
2018-01-26T12:26:14.601Z,12.02
2018-01-26T12:27:20.658Z,12.04
2018-01-26T12:28:26.940Z,12.00
2018-01-26T12:29:34.368Z,12.01
2018-01-26T12:30:40.737Z,12.05
2018-01-26T12:31:47.294Z,12.06
2018-01-26T12:32:54.927Z,12.13
2018-01-26T12:34:00.493Z,12.07
2018-01-26T12:35:07.041Z,11.98
2018-01-26T12:36:12.443Z,11.95
2018-01-26T12:37:18.175Z,11.96
2018-01-26T12:38:24.665Z,11.99
2018-01-26T12:39:30.465Z,12.01
2018-01-26T12:40:36.390Z,11.98
2018-01-26T12:41:42.887Z,12.00
2018-01-26T12:42:50.479Z,12.02
2018-01-26T12:43:56.455Z,12.01
2018-01-26T12:45:02.414Z,12.02
2018-01-26T12:46:08.183Z,12.03
2018-01-26T12:47:14.061Z,12.02
2018-01-26T12:48:19.964Z,12.02
2018-01-26T12:49:26.112Z,12.00
2018-01-26T12:50:32.910Z,12.02
2018-01-26T12:51:38.776Z,11.98
2018-01-26T12:52:44.578Z,12.00
2018-01-26T12:53:50.415Z,12.05
2018-01-26T12:54:56.435Z,12.08
2018-01-26T12:56:03.360Z,12.11
2018-01-26T12:57:09.293Z,12.12
2018-01-26T12:58:15.048Z,12.15
2018-01-26T12:59:21.130Z,12.18
2018-01-26T13:00:27.788Z,12.19
2018-01-26T13:01:33.578Z,12.20
2018-01-26T13:02:40.372Z,12.20
2018-01-26T13:03:46.220Z,12.20
2018-01-26T13:04:52.654Z,12.23
2018-01-26T13:05:59.405Z,12.24
2018-01-26T13:07:05.224Z,12.23
2018-01-26T13:08:11.408Z,12.21
2018-01-26T13:09:17.439Z,12.19
2018-01-26T13:10:24.175Z,12.15
2018-01-26T13:11:31.275Z,12.11
2018-01-26T13:12:37.639Z,12.10
2018-01-26T13:13:43.831Z,12.11
2018-01-26T13:14:50.091Z,12.13
2018-01-26T13:15:56.405Z,12.13
2018-01-26T13:17:02.137Z,12.18
2018-01-26T13:18:08.596Z,12.21
2018-01-26T13:19:15.072Z,12.23
2018-01-26T13:20:21.199Z,12.24
2018-01-26T13:21:27.107Z,12.22
2018-01-26T13:22:33.751Z,12.24
2018-01-26T13:23:39.861Z,12.26
2018-01-26T13:24:45.806Z,12.28
2018-01-26T13:25:52.368Z,12.25
2018-01-26T13:26:58.305Z,12.29
2018-01-26T13:28:04.230Z,12.33
2018-01-26T13:29:11.064Z,12.38
2018-01-26T13:30:17.210Z,12.41
2018-01-26T13:31:23.306Z,12.51
2018-01-26T13:32:29.973Z,12.53
2018-01-26T13:33:36.784Z,12.54
2018-01-26T13:34:42.826Z,12.55
2018-01-26T13:35:48.832Z,12.56
2018-01-26T13:36:55.775Z,12.57
2018-01-26T13:38:02.745Z,12.57
2018-01-26T13:39:09.658Z,12.55
2018-01-26T13:40:15.631Z,12.53
2018-01-26T13:41:21.640Z,12.49
2018-01-26T13:42:28.340Z,12.44
2018-01-26T13:43:34.295Z,12.39
2018-01-26T13:44:40.315Z,12.34
2018-01-26T13:45:46.241Z,12.29
2018-01-26T13:46:52.608Z,12.27
2018-01-26T13:47:58.591Z,12.23
2018-01-26T13:49:04.615Z,12.23
2018-01-26T13:50:10.679Z,12.24
2018-01-26T13:51:16.596Z,12.24
2018-01-26T13:52:22.531Z,12.23
2018-01-26T13:53:29.843Z,12.23
2018-01-26T13:54:35.680Z,12.22
2018-01-26T13:55:42.269Z,12.23
2018-01-26T13:56:48.037Z,12.21
2018-01-26T13:57:53.645Z,12.23
2018-01-26T13:58:59.190Z,12.25
2018-01-26T14:00:04.590Z,12.25
2018-01-26T14:01:11.135Z,12.27
2018-01-26T14:02:16.905Z,12.28
2018-01-26T14:03:23.835Z,12.27
2018-01-26T14:04:30.498Z,12.27
2018-01-26T14:05:37.043Z,12.29
2018-01-26T14:06:42.968Z,12.28
2018-01-26T14:07:48.716Z,12.26
2018-01-26T14:08:54.472Z,12.25
2018-01-26T14:10:00.235Z,12.23
2018-01-26T14:11:07.668Z,12.22
2018-01-26T14:12:13.673Z,12.19